CZSJ

Sandy Lake Airport

Sandy Lake, Ontario, Canada
METAR CZSJ 171800Z AUTO 29010G15KT 260V320 9SM BKN025 M05/M11 A3025 RMK SLP267
Observed Flight Rules
Oct-17 @ 18:00 UTC (46 minutes ago) Marginal Visual Flight Rules
Wind Visibility Clouds
290° at 10 knots
 Gusting to 15 knots
9 miles
  • Broken at 2,500' AGL
Temperatures Readings
Current -5°C / 23°F
Dewpoint -11°C / 12°F
Humidity 63%
Altimeter 30.25" Hg
Pressure 1026.7 hPa
Elevation 290
METAR CZSJ 171800Z AUTO 29010G15KT 260V320 9SM BKN025 M05/M11 A3025 RMK SLP267
Observed Flight Rules
Oct-17 @ 18:00 UTC
(46 minutes ago)
MVFR
Wind Visibility
290° at 10 knots
 Gusting to 15 knots
9 miles
Clouds
  • Broken at 2,500' AGL
Temperature Dewpoint
-5°C / 23°F -11°C / 12°F
Humidity Altimeter Pressure
63% 30.25" Hg 1026.7 hPa